createdAt,value
2017-09-22T00:01:10.151Z,8.50
2017-09-22T00:03:36.236Z,9.13
2017-09-22T00:06:02.329Z,8.63
2017-09-22T00:08:28.411Z,8.80
2017-09-22T00:10:54.513Z,9.47
2017-09-22T00:13:21.339Z,9.17
2017-09-22T00:15:47.527Z,8.43
2017-09-22T00:18:13.602Z,9.37
2017-09-22T00:20:40.402Z,9.33
2017-09-22T00:23:06.479Z,9.10
2017-09-22T00:25:33.310Z,9.33
2017-09-22T00:28:00.566Z,9.30
2017-09-22T00:30:26.688Z,10.40
2017-09-22T00:32:53.619Z,11.93
2017-09-22T00:35:19.703Z,11.00
2017-09-22T00:37:45.817Z,11.13
2017-09-22T00:40:11.904Z,10.37
2017-09-22T00:42:38.792Z,10.27
2017-09-22T00:45:04.890Z,9.33
2017-09-22T00:47:30.980Z,12.20
2017-09-22T00:49:57.797Z,10.53
2017-09-22T00:52:23.863Z,11.60
2017-09-22T00:54:50.830Z,10.97
2017-09-22T00:57:16.936Z,10.70
2017-09-22T00:59:43.021Z,10.60
2017-09-22T01:02:09.120Z,10.53
2017-09-22T01:04:35.224Z,13.40
2017-09-22T01:07:01.284Z,10.57
2017-09-22T01:09:27.343Z,11.33
2017-09-22T01:11:54.187Z,10.67
2017-09-22T01:14:20.991Z,10.40
2017-09-22T01:16:47.082Z,11.83
2017-09-22T01:19:13.143Z,11.67
2017-09-22T01:21:39.205Z,11.70
2017-09-22T01:24:06.011Z,11.33
2017-09-22T01:26:32.276Z,10.60
2017-09-22T01:28:58.339Z,12.30
2017-09-22T01:31:24.397Z,11.10
2017-09-22T01:33:50.471Z,10.87
2017-09-22T01:36:16.543Z,10.23
2017-09-22T01:38:43.485Z,12.93
2017-09-22T01:41:09.558Z,11.50
2017-09-22T01:43:35.633Z,10.50
2017-09-22T01:46:02.462Z,12.53
2017-09-22T01:48:28.568Z,10.77
2017-09-22T01:50:54.751Z,12.30
2017-09-22T01:53:20.855Z,11.00
2017-09-22T01:55:48.401Z,10.80
2017-09-22T01:58:14.653Z,12.63
2017-09-22T02:00:41.455Z,11.67
2017-09-22T02:03:07.601Z,11.63
2017-09-22T02:05:33.650Z,11.53
2017-09-22T02:07:59.710Z,11.53
2017-09-22T02:10:25.787Z,10.40
2017-09-22T02:12:52.601Z,10.27
2017-09-22T02:15:18.735Z,10.93
2017-09-22T02:17:44.809Z,11.53
2017-09-22T02:20:10.883Z,12.83
2017-09-22T02:22:37.779Z,10.80
2017-09-22T02:25:04.597Z,15.20
2017-09-22T02:27:31.050Z,11.00
2017-09-22T02:29:57.116Z,12.50
2017-09-22T02:32:23.179Z,10.87
2017-09-22T02:34:49.262Z,10.30
2017-09-22T02:37:16.098Z,10.77
2017-09-22T02:39:42.194Z,9.93
2017-09-22T02:42:08.255Z,10.50
2017-09-22T02:44:35.097Z,10.57
2017-09-22T02:47:01.947Z,11.07
2017-09-22T02:49:28.799Z,11.23
2017-09-22T02:51:55.635Z,11.20
2017-09-22T02:54:22.755Z,10.93
2017-09-22T02:56:48.842Z,11.80
2017-09-22T02:59:14.915Z,11.43
2017-09-22T03:01:41.722Z,10.73
2017-09-22T03:04:07.803Z,12.33
2017-09-22T03:06:33.896Z,12.67
2017-09-22T03:08:59.970Z,13.50
2017-09-22T03:11:26.078Z,11.83
2017-09-22T03:13:52.181Z,12.53
2017-09-22T03:16:18.283Z,11.40
2017-09-22T03:18:44.367Z,12.00
2017-09-22T03:21:10.632Z,11.70
2017-09-22T03:23:36.899Z,11.53
2017-09-22T03:26:03.883Z,11.67
2017-09-22T03:28:29.959Z,11.80
2017-09-22T03:30:56.770Z,13.83
2017-09-22T03:33:22.830Z,12.60
2017-09-22T03:35:48.900Z,11.53
2017-09-22T03:38:15.216Z,10.63
2017-09-22T03:40:41.529Z,12.27
2017-09-22T03:43:07.829Z,13.93
2017-09-22T03:45:34.092Z,12.77
2017-09-22T03:48:00.433Z,11.83
2017-09-22T03:50:26.687Z,11.60
2017-09-22T03:52:52.934Z,13.20
2017-09-22T03:55:19.174Z,13.50
2017-09-22T03:57:45.409Z,13.50
2017-09-22T04:00:12.415Z,11.97
2017-09-22T04:02:38.701Z,13.33
2017-09-22T04:05:04.962Z,12.20
2017-09-22T04:07:31.220Z,14.27
2017-09-22T04:09:57.470Z,13.37
2017-09-22T04:12:24.458Z,13.97
2017-09-22T04:14:51.680Z,17.83
2017-09-22T04:17:17.921Z,12.60
2017-09-22T04:19:44.190Z,16.40
2017-09-22T04:22:10.464Z,17.37
2017-09-22T04:24:36.706Z,18.63
2017-09-22T04:27:02.976Z,20.07
2017-09-22T04:29:29.228Z,14.27
2017-09-22T04:31:56.216Z,14.67
2017-09-22T04:34:22.507Z,13.30
2017-09-22T04:36:48.774Z,13.77
2017-09-22T04:39:15.046Z,15.50
2017-09-22T04:41:42.062Z,13.70
2017-09-22T04:44:09.043Z,13.60
2017-09-22T04:46:35.286Z,17.93
2017-09-22T04:49:01.541Z,16.27
2017-09-22T04:51:27.792Z,17.17
2017-09-22T04:53:54.046Z,16.73
2017-09-22T04:56:20.305Z,18.00
2017-09-22T04:58:46.558Z,14.43
2017-09-22T05:01:12.795Z,18.33
2017-09-22T05:03:39.036Z,15.17
2017-09-22T05:06:05.275Z,17.23
2017-09-22T05:08:31.555Z,17.50
2017-09-22T05:10:57.806Z,17.97
2017-09-22T05:13:24.058Z,17.57
2017-09-22T05:15:51.062Z,16.57
2017-09-22T05:18:17.321Z,14.30
2017-09-22T05:20:43.583Z,16.40
2017-09-22T05:23:10.593Z,17.30
2017-09-22T05:25:36.941Z,18.60
2017-09-22T05:28:03.302Z,18.20
2017-09-22T05:30:29.578Z,16.23
2017-09-22T05:32:55.839Z,21.10
2017-09-22T05:35:22.871Z,18.80
2017-09-22T05:37:49.190Z,16.77
2017-09-22T05:40:15.574Z,17.70
2017-09-22T05:42:41.827Z,17.10
2017-09-22T05:45:08.070Z,16.93
2017-09-22T05:47:34.445Z,19.73
2017-09-22T05:50:00.746Z,19.43
2017-09-22T05:52:26.998Z,22.90
2017-09-22T05:54:53.999Z,24.07
2017-09-22T05:57:20.248Z,18.70
2017-09-22T05:59:46.486Z,18.70
2017-09-22T06:02:13.468Z,22.13
2017-09-22T06:04:39.722Z,17.13
2017-09-22T06:07:05.993Z,20.57
2017-09-22T06:09:32.984Z,19.93
2017-09-22T06:11:59.223Z,17.93
2017-09-22T06:14:25.480Z,19.60
2017-09-22T06:16:51.751Z,19.13
2017-09-22T06:19:18.046Z,18.70
2017-09-22T06:21:44.374Z,20.43
2017-09-22T06:24:11.738Z,16.70
2017-09-22T06:26:37.994Z,25.20
2017-09-22T06:29:04.255Z,17.80
2017-09-22T06:31:30.614Z,20.13
2017-09-22T06:33:57.636Z,23.63
2017-09-22T06:36:23.870Z,19.57
2017-09-22T06:38:50.850Z,22.00
2017-09-22T06:41:17.159Z,20.27
2017-09-22T06:43:43.413Z,21.53
2017-09-22T06:46:09.698Z,29.93
2017-09-22T06:48:35.953Z,28.33
2017-09-22T06:51:02.189Z,34.50
2017-09-22T06:53:28.440Z,29.37
2017-09-22T06:55:54.703Z,30.40
2017-09-22T06:58:20.965Z,35.47
2017-09-22T07:00:47.219Z,29.13
2017-09-22T07:03:13.469Z,37.10
2017-09-22T07:05:39.702Z,24.17
2017-09-22T07:08:05.979Z,22.57
2017-09-22T07:10:32.238Z,35.40
2017-09-22T07:12:58.478Z,36.13
2017-09-22T07:15:24.716Z,26.30
2017-09-22T07:17:50.988Z,28.43
2017-09-22T07:20:17.226Z,29.17
2017-09-22T07:22:43.458Z,24.33
2017-09-22T07:25:09.783Z,27.60
2017-09-22T07:27:36.019Z,30.30
2017-09-22T07:30:02.268Z,24.73
2017-09-22T07:32:32.991Z,24.13
2017-09-22T07:34:59.281Z,21.57
2017-09-22T07:37:25.522Z,23.43
2017-09-22T07:39:51.759Z,25.00
2017-09-22T07:42:18.093Z,22.67
2017-09-22T07:44:44.399Z,24.93
2017-09-22T07:47:10.637Z,28.07
2017-09-22T07:49:36.882Z,24.33
2017-09-22T07:52:03.106Z,30.80
2017-09-22T07:54:29.422Z,26.43
2017-09-22T07:56:55.702Z,26.50
2017-09-22T07:59:21.951Z,23.40
2017-09-22T08:01:48.930Z,29.07
2017-09-22T08:04:15.235Z,26.00
2017-09-22T08:06:41.497Z,24.30
2017-09-22T08:09:07.726Z,28.83
2017-09-22T08:11:33.982Z,26.53
2017-09-22T08:14:00.242Z,20.93
2017-09-22T08:16:27.206Z,21.00
2017-09-22T08:18:53.487Z,21.03
2017-09-22T08:21:19.746Z,23.50
2017-09-22T08:23:45.986Z,22.20
2017-09-22T08:26:12.266Z,24.70
2017-09-22T08:28:39.289Z,29.83
2017-09-22T08:31:05.546Z,23.97
2017-09-22T08:33:31.796Z,23.57
2017-09-22T08:35:58.045Z,22.37
2017-09-22T08:38:24.290Z,28.80
2017-09-22T08:40:50.522Z,25.23
2017-09-22T08:43:16.765Z,27.60
2017-09-22T08:45:43.091Z,21.00
2017-09-22T08:48:09.342Z,21.37
2017-09-22T08:50:36.327Z,20.13
2017-09-22T08:53:02.596Z,17.40
2017-09-22T08:55:28.865Z,20.40
2017-09-22T08:57:55.109Z,21.83
2017-09-22T09:00:21.367Z,19.50
2017-09-22T09:02:47.619Z,20.97
2017-09-22T09:05:13.885Z,17.90
2017-09-22T09:07:40.137Z,16.37
2017-09-22T09:10:06.402Z,18.10
2017-09-22T09:12:32.695Z,15.37
2017-09-22T09:14:58.963Z,17.63
2017-09-22T09:17:25.222Z,18.60
2017-09-22T09:19:51.490Z,16.00
2017-09-22T09:22:17.732Z,18.00
2017-09-22T09:24:44.010Z,15.97
2017-09-22T09:27:10.290Z,15.53
2017-09-22T09:29:36.550Z,16.33
2017-09-22T09:32:02.814Z,16.43
2017-09-22T09:34:29.794Z,15.63
2017-09-22T09:36:56.811Z,15.53
2017-09-22T09:39:23.070Z,15.53
2017-09-22T09:41:49.349Z,15.97
2017-09-22T09:44:15.614Z,15.93
2017-09-22T09:46:41.884Z,14.73
2017-09-22T09:49:08.155Z,14.90
2017-09-22T09:51:34.390Z,14.47
2017-09-22T09:54:00.666Z,14.57
2017-09-22T09:56:26.901Z,16.53
2017-09-22T09:58:53.165Z,14.83
2017-09-22T10:01:19.414Z,14.23
2017-09-22T10:03:46.405Z,15.67
2017-09-22T10:06:12.654Z,15.37
2017-09-22T10:08:38.922Z,15.80
2017-09-22T10:11:05.938Z,15.17
2017-09-22T10:13:32.270Z,15.20
2017-09-22T10:15:58.519Z,16.10
2017-09-22T10:18:25.519Z,15.40
2017-09-22T10:20:51.792Z,15.50
2017-09-22T10:23:24.930Z,17.13
2017-09-22T10:25:51.168Z,16.20
2017-09-22T10:28:17.402Z,15.03
2017-09-22T10:30:43.651Z,15.97
2017-09-22T10:33:09.935Z,14.33
2017-09-22T10:35:36.211Z,15.43
2017-09-22T10:38:02.591Z,17.60
2017-09-22T10:40:28.854Z,16.73
2017-09-22T10:42:55.102Z,16.13
2017-09-22T10:45:21.330Z,14.77
2017-09-22T10:47:47.615Z,17.20
2017-09-22T10:50:13.870Z,19.20
2017-09-22T10:52:41.807Z,16.57
2017-09-22T10:55:08.162Z,15.93
2017-09-22T10:57:34.414Z,16.60
2017-09-22T11:00:00.645Z,16.00
2017-09-22T11:02:27.638Z,17.27
2017-09-22T11:04:53.880Z,18.77
2017-09-22T11:07:20.127Z,18.33
2017-09-22T11:09:46.362Z,16.30
2017-09-22T11:12:13.371Z,18.87
2017-09-22T11:14:39.619Z,21.60
2017-09-22T11:17:05.850Z,18.20
2017-09-22T11:19:32.081Z,18.37
2017-09-22T11:21:59.106Z,16.77
2017-09-22T11:24:25.385Z,17.10
2017-09-22T11:26:52.398Z,16.90
2017-09-22T11:29:19.939Z,16.03
2017-09-22T11:31:47.839Z,14.97
2017-09-22T11:34:14.023Z,10.60
2017-09-22T11:36:40.257Z,9.53
2017-09-22T11:39:06.500Z,9.53
2017-09-22T11:41:32.738Z,7.80
2017-09-22T11:43:58.957Z,7.43
2017-09-22T11:46:25.217Z,8.97
2017-09-22T11:48:52.959Z,7.20
2017-09-22T11:51:19.942Z,8.40
2017-09-22T11:53:47.003Z,9.53
2017-09-22T11:56:13.290Z,7.90
2017-09-22T11:58:39.554Z,7.70
2017-09-22T12:01:05.818Z,9.70
2017-09-22T12:03:32.119Z,8.00
2017-09-22T12:06:00.324Z,6.20
2017-09-22T12:08:26.959Z,7.30
2017-09-22T12:10:53.952Z,8.07
2017-09-22T12:13:20.367Z,8.20
2017-09-22T12:15:47.403Z,7.80
2017-09-22T12:18:14.407Z,7.70
2017-09-22T12:20:40.655Z,6.43
2017-09-22T12:23:07.658Z,7.30
2017-09-22T12:25:33.913Z,8.23
2017-09-22T12:28:00.159Z,7.73
2017-09-22T12:30:27.181Z,7.33
2017-09-22T12:32:53.418Z,7.40
2017-09-22T12:35:20.432Z,6.87
2017-09-22T12:37:46.679Z,6.17
2017-09-22T12:40:12.912Z,8.00
2017-09-22T12:42:39.155Z,7.80
2017-09-22T12:45:05.412Z,8.00
2017-09-22T12:47:31.683Z,8.70
2017-09-22T12:49:57.938Z,6.80
2017-09-22T12:52:24.176Z,5.40
2017-09-22T12:54:51.275Z,5.70
2017-09-22T12:57:17.517Z,6.70
2017-09-22T12:59:43.753Z,7.63
2017-09-22T13:02:09.998Z,6.70
2017-09-22T13:04:36.356Z,6.90
2017-09-22T13:07:02.695Z,6.07
2017-09-22T13:09:29.027Z,5.90
2017-09-22T13:11:55.269Z,7.47
2017-09-22T13:14:21.532Z,6.10
2017-09-22T13:16:49.242Z,7.03
2017-09-22T13:19:15.562Z,8.30
2017-09-22T13:21:41.803Z,8.03
2017-09-22T13:24:08.055Z,7.80
2017-09-22T13:26:35.068Z,5.60
2017-09-22T13:29:01.314Z,6.93
2017-09-22T13:31:27.567Z,6.60
2017-09-22T13:33:53.822Z,9.80
2017-09-22T13:36:20.818Z,7.73
2017-09-22T13:38:47.065Z,7.93
2017-09-22T13:41:13.375Z,8.87
2017-09-22T13:43:39.627Z,6.83
2017-09-22T13:46:05.930Z,5.57
2017-09-22T13:48:32.213Z,6.90
2017-09-22T13:50:59.231Z,7.43
2017-09-22T13:53:25.604Z,8.13
2017-09-22T13:55:52.577Z,7.70
2017-09-22T13:58:18.919Z,8.00
2017-09-22T14:00:45.256Z,7.20
2017-09-22T14:03:11.510Z,6.40
2017-09-22T14:05:37.763Z,6.20
2017-09-22T14:08:04.020Z,5.37
2017-09-22T14:10:30.275Z,5.57
2017-09-22T14:12:56.530Z,6.67
2017-09-22T14:15:24.692Z,6.33
2017-09-22T14:17:51.721Z,7.50
2017-09-22T14:20:18.154Z,5.77
2017-09-22T14:22:44.520Z,6.73
2017-09-22T14:25:10.830Z,6.07
2017-09-22T14:27:37.920Z,6.73
2017-09-22T14:30:04.183Z,7.40
2017-09-22T14:32:30.426Z,6.97
2017-09-22T14:34:56.711Z,7.07
2017-09-22T14:37:22.990Z,8.73
2017-09-22T14:39:49.328Z,6.60
2017-09-22T14:42:16.394Z,7.10
2017-09-22T14:44:43.379Z,6.53
2017-09-22T14:47:09.630Z,8.17
2017-09-22T14:49:36.643Z,6.93
2017-09-22T14:52:02.918Z,7.53
2017-09-22T14:54:29.934Z,7.30
2017-09-22T14:56:56.194Z,6.80
2017-09-22T14:59:23.178Z,9.77
2017-09-22T15:01:49.475Z,9.10
2017-09-22T15:04:16.507Z,7.57
2017-09-22T15:06:42.804Z,8.90
2017-09-22T15:09:09.891Z,9.60
2017-09-22T15:11:36.899Z,12.10
2017-09-22T15:14:03.175Z,9.57
2017-09-22T15:16:29.450Z,8.07
2017-09-22T15:18:55.720Z,8.80
2017-09-22T15:21:22.727Z,7.63
2017-09-22T15:23:49.096Z,7.90
2017-09-22T15:26:15.374Z,7.87
2017-09-22T15:28:41.598Z,7.60
2017-09-22T15:31:07.887Z,7.97
2017-09-22T15:33:34.940Z,10.53
2017-09-22T15:36:01.233Z,9.33
2017-09-22T15:38:27.519Z,7.93
2017-09-22T15:40:53.782Z,9.30
2017-09-22T15:43:20.088Z,9.13
2017-09-22T15:45:46.332Z,8.23
2017-09-22T15:48:13.427Z,8.20
2017-09-22T15:50:40.684Z,8.07
2017-09-22T15:53:07.774Z,7.40
2017-09-22T15:55:34.045Z,10.10
2017-09-22T15:58:01.051Z,9.93
2017-09-22T16:00:27.287Z,7.53
2017-09-22T16:02:53.528Z,7.53
2017-09-22T16:05:19.999Z,7.13
2017-09-22T16:07:46.953Z,8.80
2017-09-22T16:10:13.214Z,8.03
2017-09-22T16:12:39.467Z,8.20
2017-09-22T16:15:06.487Z,7.60
2017-09-22T16:17:32.770Z,7.03
2017-09-22T16:19:59.087Z,7.93
2017-09-22T16:22:25.321Z,8.40
2017-09-22T16:24:51.576Z,7.57
2017-09-22T16:27:18.622Z,7.80
2017-09-22T16:29:45.343Z,7.73
2017-09-22T16:32:11.703Z,8.43
2017-09-22T16:34:37.973Z,7.97
2017-09-22T16:37:04.974Z,8.97
2017-09-22T16:39:31.975Z,10.13
2017-09-22T16:41:58.241Z,8.50
2017-09-22T16:44:24.494Z,9.13
2017-09-22T16:46:51.902Z,8.10
2017-09-22T16:49:18.947Z,9.03
2017-09-22T16:51:45.258Z,9.80
2017-09-22T16:54:11.518Z,8.60
2017-09-22T16:56:37.806Z,10.27
2017-09-22T16:59:04.810Z,8.87
2017-09-22T17:01:31.087Z,10.40
2017-09-22T17:03:57.383Z,9.97
2017-09-22T17:06:23.636Z,9.50
2017-09-22T17:08:50.605Z,8.80
2017-09-22T17:11:16.883Z,8.13
2017-09-22T17:13:43.141Z,14.30
2017-09-22T17:16:09.370Z,9.40
2017-09-22T17:18:35.623Z,9.27
2017-09-22T17:21:01.876Z,10.00
2017-09-22T17:23:28.120Z,9.70
2017-09-22T17:25:54.478Z,9.63
2017-09-22T17:28:20.843Z,11.50
2017-09-22T17:30:47.258Z,10.37
2017-09-22T17:33:14.347Z,11.00
2017-09-22T17:35:41.367Z,10.60
2017-09-22T17:38:07.646Z,10.43
2017-09-22T17:40:34.656Z,10.53
2017-09-22T17:43:00.894Z,10.77
2017-09-22T17:45:27.141Z,11.17
2017-09-22T17:47:54.155Z,8.87
2017-09-22T17:50:20.409Z,9.80
2017-09-22T17:52:46.660Z,13.63
2017-09-22T17:55:13.686Z,11.80
2017-09-22T17:57:40.672Z,11.00
2017-09-22T18:00:06.986Z,12.80
2017-09-22T18:02:33.234Z,13.70
2017-09-22T18:04:59.503Z,12.80
2017-09-22T18:07:26.605Z,13.67
2017-09-22T18:09:52.932Z,16.20
2017-09-22T18:12:19.231Z,14.60
2017-09-22T18:14:46.211Z,16.77
2017-09-22T18:17:12.557Z,16.30
2017-09-22T18:19:38.939Z,16.73
2017-09-22T18:22:05.216Z,20.50
2017-09-22T18:24:31.526Z,18.07
2017-09-22T18:26:57.835Z,18.00
2017-09-22T18:29:24.136Z,15.77
2017-09-22T18:31:50.411Z,16.40
2017-09-22T18:34:16.713Z,18.27
2017-09-22T18:36:43.045Z,19.63
2017-09-22T18:39:09.425Z,17.83
2017-09-22T18:41:35.902Z,18.00
2017-09-22T18:44:03.076Z,19.37
2017-09-22T18:46:29.482Z,20.27
2017-09-22T18:48:56.470Z,19.07
2017-09-22T18:51:22.729Z,19.93
2017-09-22T18:53:49.126Z,20.20
2017-09-22T18:56:15.387Z,21.03
2017-09-22T18:58:41.723Z,21.50
2017-09-22T19:01:08.779Z,20.83
2017-09-22T19:03:35.181Z,21.17
2017-09-22T19:06:01.430Z,24.93
2017-09-22T19:08:27.806Z,21.40
2017-09-22T19:10:54.122Z,21.43
2017-09-22T19:13:20.360Z,23.40
2017-09-22T19:15:46.651Z,27.27
2017-09-22T19:18:13.647Z,22.40
2017-09-22T19:20:39.939Z,21.37
2017-09-22T19:23:06.316Z,23.37
2017-09-22T19:25:32.691Z,23.70
2017-09-22T19:27:58.967Z,23.37
2017-09-22T19:30:25.353Z,22.97
2017-09-22T19:32:52.355Z,21.03
2017-09-22T19:35:18.647Z,25.90
2017-09-22T19:37:44.956Z,23.60
2017-09-22T19:40:11.273Z,23.90
2017-09-22T19:42:37.527Z,24.73
2017-09-22T19:45:03.773Z,29.23
2017-09-22T19:47:30.036Z,23.17
2017-09-22T19:49:56.403Z,25.40
2017-09-22T19:52:22.679Z,22.13
2017-09-22T19:54:48.943Z,22.33
2017-09-22T19:57:15.996Z,23.80
2017-09-22T19:59:43.051Z,25.57
2017-09-22T20:02:09.308Z,28.53
2017-09-22T20:04:36.280Z,26.73
2017-09-22T20:07:03.497Z,26.00
2017-09-22T20:09:29.755Z,24.63
2017-09-22T20:11:56.026Z,25.03
2017-09-22T20:14:22.691Z,25.90
2017-09-22T20:16:49.817Z,25.27
2017-09-22T20:19:16.828Z,23.87
2017-09-22T20:21:43.090Z,24.67
2017-09-22T20:24:09.419Z,24.97
2017-09-22T20:26:35.667Z,26.63
2017-09-22T20:29:01.970Z,27.33
2017-09-22T20:31:28.315Z,25.83
2017-09-22T20:33:54.580Z,26.33
2017-09-22T20:36:20.862Z,27.77
2017-09-22T20:38:47.106Z,28.13
2017-09-22T20:41:13.412Z,30.97
2017-09-22T20:43:39.674Z,28.73
2017-09-22T20:46:05.912Z,28.83
2017-09-22T20:48:32.192Z,30.90
2017-09-22T20:50:59.189Z,28.80
2017-09-22T20:53:25.439Z,33.70
2017-09-22T20:55:51.685Z,32.63
2017-09-22T20:58:18.019Z,33.17
2017-09-22T21:00:44.872Z,46.13
2017-09-22T21:03:11.199Z,34.93
2017-09-22T21:05:37.445Z,36.03
2017-09-22T21:08:03.699Z,33.13
2017-09-22T21:10:30.706Z,36.67
2017-09-22T21:12:56.970Z,36.83
2017-09-22T21:15:24.091Z,38.07
2017-09-22T21:17:50.395Z,42.70
2017-09-22T21:20:17.442Z,40.30
2017-09-22T21:22:44.422Z,40.53
2017-09-22T21:25:10.714Z,42.70
2017-09-22T21:27:36.968Z,44.20
2017-09-22T21:30:03.252Z,44.07
2017-09-22T21:32:29.578Z,45.60
2017-09-22T21:34:55.807Z,50.87
2017-09-22T21:37:22.152Z,52.10
2017-09-22T21:39:49.131Z,56.33
2017-09-22T21:42:15.425Z,57.27
2017-09-22T21:44:42.402Z,62.60
2017-09-22T21:47:08.679Z,70.10
2017-09-22T21:49:35.674Z,72.43
2017-09-22T21:52:01.928Z,79.37
2017-09-22T21:54:28.918Z,69.57
2017-09-22T21:56:55.973Z,73.47
2017-09-22T21:59:22.207Z,78.67
2017-09-22T22:01:48.452Z,94.10
2017-09-22T22:04:21.054Z,91.57
2017-09-22T22:06:53.374Z,86.77
2017-09-22T22:09:19.694Z,95.90
2017-09-22T22:11:46.806Z,91.50
2017-09-22T22:14:13.205Z,98.93
2017-09-22T22:16:39.506Z,110.03
2017-09-22T22:19:06.006Z,108.60
2017-09-22T22:21:32.367Z,121.83
2017-09-22T22:23:59.368Z,110.00
2017-09-22T22:26:25.607Z,100.80
2017-09-22T22:28:51.846Z,130.80
2017-09-22T22:31:18.838Z,134.73
2017-09-22T22:33:45.123Z,118.40
2017-09-22T22:36:24.549Z,126.33
2017-09-22T22:38:50.800Z,125.17
2017-09-22T22:41:17.792Z,128.53
2017-09-22T22:43:44.051Z,128.77
2017-09-22T22:46:10.313Z,122.23
2017-09-22T22:48:37.358Z,110.73
2017-09-22T22:51:03.682Z,115.97
2017-09-22T22:53:29.959Z,107.83
2017-09-22T22:55:56.240Z,99.37
2017-09-22T22:58:22.562Z,113.90
2017-09-22T23:00:48.840Z,111.40
2017-09-22T23:03:15.114Z,104.57
2017-09-22T23:05:42.114Z,113.40
2017-09-22T23:08:08.371Z,103.07
2017-09-22T23:10:35.349Z,116.13
2017-09-22T23:13:01.662Z,137.53
2017-09-22T23:15:27.915Z,133.40
2017-09-22T23:17:54.148Z,114.07
2017-09-22T23:20:20.425Z,126.47
2017-09-22T23:22:47.416Z,116.27
2017-09-22T23:25:13.667Z,109.53
2017-09-22T23:27:39.960Z,125.23
2017-09-22T23:30:06.226Z,127.57
2017-09-22T23:32:32.478Z,113.60
2017-09-22T23:34:58.754Z,129.77
2017-09-22T23:37:25.015Z,104.97
2017-09-22T23:39:51.272Z,109.30
2017-09-22T23:42:18.259Z,108.33
2017-09-22T23:44:44.564Z,106.13
2017-09-22T23:47:10.832Z,125.47
2017-09-22T23:49:37.102Z,101.33
2017-09-22T23:52:03.463Z,113.60
2017-09-22T23:54:29.731Z,107.03
2017-09-22T23:56:55.976Z,114.53
2017-09-22T23:59:22.973Z,103.53
